createdAt,value
2022-08-11T00:01:23.333Z,523.60
2022-08-11T00:03:57.119Z,507.93
2022-08-11T00:06:28.291Z,703.20
2022-08-11T00:08:57.924Z,480.40
2022-08-11T00:11:34.817Z,691.80
2022-08-11T00:14:03.726Z,542.07
2022-08-11T00:16:33.851Z,575.80
2022-08-11T00:19:02.755Z,406.10
2022-08-11T00:22:01.851Z,631.13
2022-08-11T00:24:21.122Z,716.37
2022-08-11T00:26:50.353Z,679.77
2022-08-11T00:29:19.052Z,689.77
2022-08-11T00:31:51.749Z,797.73
2022-08-11T00:34:22.836Z,428.70
2022-08-11T00:36:54.987Z,621.20
2022-08-11T00:39:28.971Z,597.77
2022-08-11T00:42:15.463Z,668.87
2022-08-11T00:45:01.900Z,563.33
2022-08-11T00:47:56.330Z,693.47
2022-08-11T00:50:47.171Z,720.43
2022-08-11T00:53:36.595Z,717.67
2022-08-11T00:56:40.187Z,726.60
2022-08-11T00:59:36.080Z,684.80
2022-08-11T01:02:19.808Z,781.80
2022-08-11T01:05:12.754Z,742.67
2022-08-11T01:08:14.278Z,599.23
2022-08-11T01:11:27.209Z,683.37
2022-08-11T01:14:26.896Z,604.57
2022-08-11T01:18:08.519Z,591.77
2022-08-11T01:21:10.665Z,563.30
2022-08-11T01:24:41.817Z,708.50
2022-08-11T01:27:30.169Z,696.53
2022-08-11T01:30:15.166Z,723.97
2022-08-11T01:33:20.041Z,652.77
2022-08-11T01:36:32.075Z,715.43
2022-08-11T01:39:29.714Z,699.50
2022-08-11T01:42:48.335Z,684.53
2022-08-11T01:45:28.840Z,661.37
2022-08-11T01:48:03.930Z,716.87
2022-08-11T01:51:03.146Z,710.17
2022-08-11T01:53:48.523Z,635.77
2022-08-11T01:56:36.796Z,680.93
2022-08-11T01:59:13.117Z,661.57
2022-08-11T02:01:58.267Z,707.07
2022-08-11T02:04:34.304Z,685.10
2022-08-11T02:07:10.837Z,747.73
2022-08-11T02:10:01.883Z,710.47
2022-08-11T02:12:52.232Z,698.03
2022-08-11T02:15:28.994Z,659.73
2022-08-11T02:18:06.726Z,648.40
2022-08-11T02:21:02.664Z,664.57
2022-08-11T02:24:06.642Z,723.93
2022-08-11T02:26:41.246Z,649.67
2022-08-11T02:29:18.001Z,715.53
2022-08-11T02:32:24.094Z,536.57
2022-08-11T02:35:00.836Z,658.43
2022-08-11T02:37:38.146Z,656.07
2022-08-11T02:40:20.941Z,352.50
2022-08-11T02:43:05.662Z,669.67
2022-08-11T02:45:46.225Z,330.73
2022-08-11T02:48:43.569Z,669.03
2022-08-11T02:51:22.341Z,656.17
2022-08-11T02:53:57.864Z,636.13
2022-08-11T02:56:38.655Z,709.50
2022-08-11T02:59:33.506Z,640.50
2022-08-11T03:02:23.415Z,612.90
2022-08-11T03:05:05.121Z,296.33
2022-08-11T03:07:40.999Z,699.97
2022-08-11T03:10:21.721Z,772.37
2022-08-11T03:13:15.686Z,667.23
2022-08-11T03:16:10.689Z,638.33
2022-08-11T03:18:46.172Z,702.00
2022-08-11T03:21:21.673Z,570.47
2022-08-11T03:24:01.591Z,562.73
2022-08-11T03:26:38.588Z,591.97
2022-08-11T03:29:13.117Z,679.10
2022-08-11T03:31:56.634Z,730.60
2022-08-11T03:34:27.164Z,709.93
2022-08-11T03:37:34.551Z,722.07
2022-08-11T03:40:14.568Z,671.77
2022-08-11T03:42:49.215Z,712.47
2022-08-11T03:45:26.168Z,681.63
2022-08-11T03:48:08.978Z,635.80
2022-08-11T03:50:56.088Z,672.73
2022-08-11T03:53:45.313Z,692.27
2022-08-11T03:56:49.000Z,631.30
2022-08-11T04:00:02.108Z,590.07
2022-08-11T04:02:55.383Z,667.23
2022-08-11T04:06:03.434Z,615.23
2022-08-11T04:09:13.426Z,711.13
2022-08-11T04:12:36.584Z,663.17
2022-08-11T04:15:50.328Z,638.47
2022-08-11T04:18:53.982Z,412.93
2022-08-11T04:21:45.856Z,670.17
2022-08-11T04:24:41.450Z,648.90
2022-08-11T04:27:37.696Z,654.20
2022-08-11T04:30:16.788Z,596.73
2022-08-11T04:33:12.997Z,655.53
2022-08-11T04:35:51.749Z,708.37
2022-08-11T04:39:00.584Z,700.17
2022-08-11T04:42:10.917Z,680.73
2022-08-11T04:45:13.240Z,700.87
2022-08-11T04:48:11.920Z,652.23
2022-08-11T04:51:17.095Z,675.80
2022-08-11T04:54:16.155Z,633.37
2022-08-11T04:57:06.334Z,653.03
2022-08-11T05:00:24.673Z,742.20
2022-08-11T05:03:28.169Z,639.60
2022-08-11T05:06:33.714Z,506.27
2022-08-11T05:09:29.533Z,674.73
2022-08-11T05:12:15.296Z,696.83
2022-08-11T05:15:09.394Z,707.60
2022-08-11T05:18:14.011Z,680.23
2022-08-11T05:21:09.111Z,691.13
2022-08-11T05:24:00.143Z,733.10
2022-08-11T05:26:49.642Z,723.03
2022-08-11T05:30:03.166Z,638.63
2022-08-11T05:33:00.917Z,694.93
2022-08-11T05:36:01.896Z,782.20
2022-08-11T05:38:49.103Z,625.87
2022-08-11T05:41:39.122Z,610.80
2022-08-11T05:44:25.575Z,623.80
2022-08-11T05:47:13.315Z,584.07
2022-08-11T05:50:00.874Z,709.37
2022-08-11T05:52:55.347Z,634.43
2022-08-11T05:55:52.368Z,685.00
2022-08-11T05:58:41.688Z,684.73
2022-08-11T06:01:11.647Z,605.07
2022-08-11T06:03:59.082Z,710.90
2022-08-11T06:06:29.108Z,647.07
2022-08-11T06:08:58.780Z,690.23
2022-08-11T06:11:43.809Z,692.47
2022-08-11T06:14:14.033Z,627.87
2022-08-11T06:16:42.974Z,748.27
2022-08-11T06:19:14.238Z,700.87
2022-08-11T06:21:47.558Z,730.13
2022-08-11T06:24:17.216Z,636.37
2022-08-11T06:27:11.155Z,621.20
2022-08-11T06:29:51.105Z,716.87
2022-08-11T06:32:26.363Z,583.17
2022-08-11T06:35:05.896Z,676.20
2022-08-11T06:37:46.676Z,687.37
2022-08-11T06:40:27.347Z,667.93
2022-08-11T06:43:02.211Z,693.43
2022-08-11T06:45:35.205Z,717.67
2022-08-11T06:48:06.463Z,705.43
2022-08-11T06:50:54.988Z,613.40
2022-08-11T06:53:23.483Z,706.03
2022-08-11T06:56:09.601Z,631.60
2022-08-11T06:58:57.927Z,709.10
2022-08-11T07:01:47.679Z,613.50
2022-08-11T07:04:25.338Z,483.67
2022-08-11T07:07:40.141Z,623.97
2022-08-11T07:10:54.953Z,679.43
2022-08-11T07:13:45.414Z,618.23
2022-08-11T07:16:24.338Z,666.63
2022-08-11T07:19:17.273Z,529.00
2022-08-11T07:22:05.675Z,646.47
2022-08-11T07:24:59.135Z,626.60
2022-08-11T07:27:54.768Z,622.80
2022-08-11T07:30:23.241Z,643.63
2022-08-11T07:32:53.651Z,588.83
2022-08-11T07:35:25.556Z,506.27
2022-08-11T07:38:02.289Z,704.17
2022-08-11T07:40:33.694Z,689.17
2022-08-11T07:43:02.457Z,686.27
2022-08-11T07:46:03.278Z,589.03
2022-08-11T07:48:49.443Z,668.87
2022-08-11T07:51:37.945Z,617.57
2022-08-11T07:54:15.292Z,629.20
2022-08-11T07:56:54.701Z,703.77
2022-08-11T08:00:03.530Z,473.53
2022-08-11T08:02:48.739Z,641.23
2022-08-11T08:05:36.207Z,685.27
2022-08-11T08:08:23.220Z,661.23
2022-08-11T08:11:08.652Z,652.47
2022-08-11T08:13:56.687Z,709.63
2022-08-11T08:16:42.817Z,714.43
2022-08-11T08:19:13.555Z,577.00
2022-08-11T08:21:45.429Z,650.07
2022-08-11T08:24:14.160Z,569.33
2022-08-11T08:27:03.165Z,686.87
2022-08-11T08:29:53.178Z,716.63
2022-08-11T08:32:22.716Z,664.43
2022-08-11T08:34:52.739Z,660.80
2022-08-11T08:37:45.072Z,553.90
2022-08-11T08:40:11.495Z,645.63
2022-08-11T08:42:45.502Z,628.50
2022-08-11T08:45:18.389Z,605.43
2022-08-11T08:47:59.568Z,583.90
2022-08-11T08:50:47.166Z,693.97
2022-08-11T08:53:19.731Z,697.80
2022-08-11T08:55:48.040Z,642.37
2022-08-11T08:58:17.573Z,746.93
2022-08-11T09:00:48.279Z,623.50
2022-08-11T09:03:41.066Z,582.93
2022-08-11T09:06:04.736Z,608.87
2022-08-11T09:08:33.711Z,565.80
2022-08-11T09:11:20.487Z,671.53
2022-08-11T09:14:04.740Z,580.87
2022-08-11T09:16:39.025Z,676.80
2022-08-11T09:19:08.597Z,670.80
2022-08-11T09:21:48.291Z,611.07
2022-08-11T09:24:35.549Z,624.07
2022-08-11T09:27:07.779Z,610.87
2022-08-11T09:29:37.101Z,552.83
2022-08-11T09:32:07.200Z,445.90
2022-08-11T09:34:37.348Z,640.80
2022-08-11T09:37:54.045Z,580.70
2022-08-11T09:40:33.721Z,678.30
2022-08-11T09:43:22.321Z,659.83
2022-08-11T09:45:52.351Z,630.10
2022-08-11T09:48:22.890Z,610.47
2022-08-11T09:50:52.851Z,611.23
2022-08-11T09:53:36.771Z,614.83
2022-08-11T09:56:30.413Z,578.90
2022-08-11T09:58:59.705Z,547.67
2022-08-11T10:01:31.875Z,580.97
2022-08-11T10:04:04.871Z,625.70
2022-08-11T10:06:54.080Z,594.13
2022-08-11T10:09:25.542Z,464.57
2022-08-11T10:11:58.579Z,658.60
2022-08-11T10:14:45.927Z,664.73
2022-08-11T10:17:16.201Z,677.27
2022-08-11T10:20:04.451Z,576.40
2022-08-11T10:22:52.838Z,576.30
2022-08-11T10:25:39.850Z,619.83
2022-08-11T10:28:28.280Z,662.53
2022-08-11T10:31:13.716Z,584.00
2022-08-11T10:33:59.922Z,629.60
2022-08-11T10:36:31.135Z,603.23
2022-08-11T10:39:01.168Z,640.97
2022-08-11T10:42:06.198Z,600.30
2022-08-11T10:44:39.796Z,652.40
2022-08-11T10:47:26.743Z,538.77
2022-08-11T10:50:10.887Z,605.70
2022-08-11T10:52:58.966Z,623.23
2022-08-11T10:55:45.422Z,515.83
2022-08-11T10:58:31.612Z,607.93
2022-08-11T11:01:01.017Z,674.37
2022-08-11T11:03:34.500Z,558.63
2022-08-11T11:06:12.779Z,515.97
2022-08-11T11:09:04.453Z,659.03
2022-08-11T11:11:54.890Z,539.87
2022-08-11T11:14:59.156Z,608.43
2022-08-11T11:17:48.821Z,576.40
2022-08-11T11:20:36.728Z,601.77
2022-08-11T11:23:09.186Z,649.40
2022-08-11T11:26:09.918Z,573.40
2022-08-11T11:29:14.336Z,599.23
2022-08-11T11:31:55.320Z,589.53
2022-08-11T11:34:37.758Z,624.40
2022-08-11T11:37:21.970Z,618.97
2022-08-11T11:39:50.522Z,597.53
2022-08-11T11:42:21.339Z,633.50
2022-08-11T11:44:49.724Z,642.80
2022-08-11T11:47:21.739Z,707.13
2022-08-11T11:49:51.251Z,593.33
2022-08-11T11:52:22.056Z,648.17
2022-08-11T11:54:53.384Z,632.30
2022-08-11T11:57:41.567Z,608.00
2022-08-11T12:00:44.665Z,665.40
2022-08-11T12:03:13.563Z,652.20
2022-08-11T12:05:44.439Z,631.67
2022-08-11T12:08:17.056Z,643.83
2022-08-11T12:10:47.811Z,681.33
2022-08-11T12:13:35.862Z,554.60
2022-08-11T12:16:34.932Z,552.73
2022-08-11T12:18:56.549Z,601.70
2022-08-11T12:21:25.401Z,640.40
2022-08-11T12:24:13.196Z,541.80
2022-08-11T12:27:16.626Z,558.83
2022-08-11T12:29:55.035Z,495.43
2022-08-11T12:32:26.423Z,561.43
2022-08-11T12:34:57.185Z,651.67
2022-08-11T12:37:30.599Z,429.87
2022-08-11T12:41:11.336Z,666.77
2022-08-11T12:43:38.570Z,634.33
2022-08-11T12:46:11.462Z,682.90
2022-08-11T12:49:04.053Z,561.30
2022-08-11T12:52:11.803Z,609.43
2022-08-11T12:54:51.422Z,532.97
2022-08-11T12:57:52.268Z,626.67
2022-08-11T13:00:39.145Z,577.37
2022-08-11T13:03:28.557Z,661.50
2022-08-11T13:05:58.763Z,573.13
2022-08-11T13:08:29.397Z,550.10
2022-08-11T13:11:17.829Z,644.13
2022-08-11T13:13:55.042Z,437.47
2022-08-11T13:16:29.001Z,654.63
2022-08-11T13:19:01.173Z,618.17
2022-08-11T13:21:30.106Z,545.10
2022-08-11T13:24:00.686Z,688.60
2022-08-11T13:26:47.443Z,537.53
2022-08-11T13:29:22.479Z,617.37
2022-08-11T13:31:51.545Z,545.20
2022-08-11T13:34:22.523Z,605.10
2022-08-11T13:36:53.110Z,504.67
2022-08-11T13:39:23.952Z,632.80
2022-08-11T13:41:56.462Z,567.23
2022-08-11T13:44:28.148Z,603.93
2022-08-11T13:46:58.743Z,572.00
2022-08-11T13:49:28.947Z,546.87
2022-08-11T13:51:57.851Z,560.67
2022-08-11T13:54:28.968Z,540.83
2022-08-11T13:57:00.890Z,696.80
2022-08-11T13:59:31.117Z,582.87
2022-08-11T14:02:22.186Z,629.60
2022-08-11T14:04:58.049Z,572.40
2022-08-11T14:07:34.526Z,502.70
2022-08-11T14:10:03.967Z,455.23
2022-08-11T14:12:53.174Z,554.53
2022-08-11T14:15:25.228Z,607.87
2022-08-11T14:17:57.167Z,470.30
2022-08-11T14:20:46.815Z,583.87
2022-08-11T14:23:15.743Z,568.27
2022-08-11T14:26:04.732Z,619.87
2022-08-11T14:28:41.687Z,569.73
2022-08-11T14:31:15.390Z,495.63
2022-08-11T14:34:00.850Z,651.47
2022-08-11T14:36:35.504Z,596.97
2022-08-11T14:39:06.893Z,626.17
2022-08-11T14:42:10.802Z,531.37
2022-08-11T14:45:01.935Z,509.13
2022-08-11T14:47:32.878Z,547.70
2022-08-11T14:50:11.887Z,685.87
2022-08-11T14:52:46.643Z,509.30
2022-08-11T14:55:33.589Z,659.20
2022-08-11T14:58:03.001Z,633.20
2022-08-11T15:00:32.175Z,634.53
2022-08-11T15:03:12.954Z,589.60
2022-08-11T15:05:57.398Z,607.13
2022-08-11T15:08:47.725Z,675.77
2022-08-11T15:11:35.897Z,613.43
2022-08-11T15:14:05.757Z,604.07
2022-08-11T15:16:51.713Z,448.87
2022-08-11T15:19:21.969Z,693.93
2022-08-11T15:22:07.819Z,633.77
2022-08-11T15:24:37.730Z,626.70
2022-08-11T15:27:27.524Z,586.93
2022-08-11T15:30:18.284Z,492.17
2022-08-11T15:33:24.339Z,513.60
2022-08-11T15:36:11.809Z,502.37
2022-08-11T15:38:45.594Z,614.43
2022-08-11T15:41:36.580Z,554.97
2022-08-11T15:44:51.481Z,572.60
2022-08-11T15:47:19.029Z,572.30
2022-08-11T15:50:11.245Z,602.60
2022-08-11T15:52:47.326Z,574.23
2022-08-11T15:55:16.859Z,615.33
2022-08-11T15:58:07.477Z,589.67
2022-08-11T16:00:58.865Z,639.47
2022-08-11T16:04:06.479Z,505.47
2022-08-11T16:06:40.537Z,561.77
2022-08-11T16:09:19.035Z,527.60
2022-08-11T16:11:49.288Z,618.60
2022-08-11T16:14:38.098Z,592.43
2022-08-11T16:17:08.274Z,550.77
2022-08-11T16:19:38.003Z,570.53
2022-08-11T16:22:09.619Z,582.30
2022-08-11T16:27:04.682Z,544.67
2022-08-11T16:27:36.254Z,434.03
2022-08-11T16:30:07.267Z,584.23
2022-08-11T16:32:37.467Z,461.03
2022-08-11T16:35:34.520Z,599.77
2022-08-11T16:38:21.491Z,579.50
2022-08-11T16:40:52.496Z,553.23
2022-08-11T16:43:40.769Z,568.20
2022-08-11T16:46:28.513Z,403.50
2022-08-11T16:48:57.822Z,551.50
2022-08-11T16:51:25.835Z,524.67
2022-08-11T16:54:04.381Z,588.23
2022-08-11T16:56:36.836Z,613.33
2022-08-11T16:59:14.963Z,524.47
2022-08-11T17:01:52.986Z,580.87
2022-08-11T17:04:55.062Z,582.27
2022-08-11T17:07:50.127Z,606.10
2022-08-11T17:10:52.527Z,595.43
2022-08-11T17:13:29.365Z,614.97
2022-08-11T17:16:12.573Z,590.73
2022-08-11T17:18:55.553Z,562.30
2022-08-11T17:21:29.797Z,517.33
2022-08-11T17:24:06.381Z,537.90
2022-08-11T17:26:57.078Z,592.97
2022-08-11T17:29:29.888Z,608.97
2022-08-11T17:32:16.327Z,555.37
2022-08-11T17:35:05.580Z,494.33
2022-08-11T17:37:35.520Z,522.60
2022-08-11T17:40:06.873Z,641.70
2022-08-11T17:42:54.153Z,669.17
2022-08-11T17:45:41.701Z,593.80
2022-08-11T17:48:27.194Z,581.03
2022-08-11T17:50:59.197Z,574.27
2022-08-11T17:54:10.127Z,541.97
2022-08-11T17:56:52.081Z,575.10
2022-08-11T17:59:37.980Z,587.90
2022-08-11T18:02:21.252Z,505.20
2022-08-11T18:05:03.137Z,527.83
2022-08-11T18:07:52.460Z,523.80
2022-08-11T18:10:40.236Z,485.87
2022-08-11T18:13:26.170Z,424.73
2022-08-11T18:16:11.858Z,583.87
2022-08-11T18:18:57.519Z,507.03
2022-08-11T18:21:46.557Z,488.07
2022-08-11T18:24:58.891Z,591.47
2022-08-11T18:27:46.515Z,559.70
2022-08-11T18:30:32.026Z,610.47
2022-08-11T18:33:56.772Z,560.07
2022-08-11T18:36:31.104Z,528.10
2022-08-11T18:39:19.299Z,642.50
2022-08-11T18:42:07.091Z,561.80
2022-08-11T18:44:54.675Z,516.73
2022-08-11T18:47:41.726Z,559.13
2022-08-11T18:50:38.694Z,698.87
2022-08-11T18:53:29.107Z,651.50
2022-08-11T18:56:16.203Z,611.10
2022-08-11T18:59:05.888Z,648.43
2022-08-11T19:01:53.788Z,14.83
2022-08-11T19:04:40.383Z,1.93
2022-08-11T19:07:27.747Z,2.50
2022-08-11T19:10:13.937Z,1.90
2022-08-11T19:13:01.679Z,2.10
2022-08-11T19:15:49.456Z,2.70
2022-08-11T19:18:40.339Z,2.70
2022-08-11T19:21:27.231Z,2.97
2022-08-11T19:24:17.359Z,4.00
2022-08-11T19:27:03.668Z,3.33
2022-08-11T19:30:07.244Z,4.30
2022-08-11T19:32:59.180Z,2.37
2022-08-11T19:35:45.307Z,2.10
2022-08-11T19:38:31.132Z,1.87
2022-08-11T19:41:51.800Z,1.73
2022-08-11T19:44:24.867Z,5.47
2022-08-11T19:47:11.571Z,2.00
2022-08-11T19:50:01.300Z,4.53
2022-08-11T19:52:48.299Z,3.30
2022-08-11T19:55:35.338Z,1.10
2022-08-11T19:58:21.699Z,2.13
2022-08-11T20:01:07.707Z,3.23
2022-08-11T20:03:53.093Z,3.77
2022-08-11T20:06:41.228Z,9.03
2022-08-11T20:09:28.101Z,2.50
2022-08-11T20:12:35.084Z,5.03
2022-08-11T20:15:21.851Z,5.37
2022-08-11T20:18:07.371Z,5.23
2022-08-11T20:20:53.760Z,4.10
2022-08-11T20:23:43.003Z,2.50
2022-08-11T20:26:31.173Z,1.97
2022-08-11T20:29:18.720Z,5.00
2022-08-11T20:32:06.655Z,4.93
2022-08-11T20:34:57.574Z,3.40
2022-08-11T20:37:50.251Z,3.23
2022-08-11T20:40:41.379Z,8.50
2022-08-11T20:44:07.591Z,3.67
2022-08-11T20:46:38.416Z,4.40
2022-08-11T20:49:42.297Z,6.13
2022-08-11T20:52:36.111Z,3.87
2022-08-11T20:55:26.045Z,3.23
2022-08-11T20:58:49.136Z,2.30
2022-08-11T21:01:38.867Z,4.90
2022-08-11T21:04:26.284Z,5.43
2022-08-11T21:07:12.685Z,2.30
2022-08-11T21:10:13.622Z,3.27
2022-08-11T21:13:26.043Z,4.43
2022-08-11T21:16:22.719Z,6.30
2022-08-11T21:19:16.578Z,6.67
2022-08-11T21:22:03.828Z,3.00
2022-08-11T21:24:51.775Z,2.97
2022-08-11T21:27:40.109Z,2.33
2022-08-11T21:30:27.023Z,9.40
2022-08-11T21:33:13.771Z,2.73
2022-08-11T21:36:00.515Z,4.80
2022-08-11T21:38:46.581Z,5.53
2022-08-11T21:41:34.276Z,3.53
2022-08-11T21:44:20.668Z,5.87
2022-08-11T21:47:07.128Z,3.37
2022-08-11T21:49:55.440Z,3.50
2022-08-11T21:52:41.514Z,5.30
2022-08-11T21:55:29.171Z,4.97
2022-08-11T21:58:16.141Z,4.73
2022-08-11T22:01:02.668Z,5.53
2022-08-11T22:03:49.663Z,7.17
2022-08-11T22:06:38.585Z,4.57
2022-08-11T22:09:24.047Z,7.30
2022-08-11T22:12:34.185Z,4.40
2022-08-11T22:15:15.993Z,9.07
2022-08-11T22:18:01.741Z,4.40
2022-08-11T22:20:49.223Z,3.37
2022-08-11T22:23:37.929Z,3.97
2022-08-11T22:26:25.709Z,10.43
2022-08-11T22:29:11.653Z,3.70
2022-08-11T22:31:59.106Z,5.53
2022-08-11T22:34:53.470Z,9.17
2022-08-11T22:37:40.638Z,1.80
2022-08-11T22:40:29.135Z,8.37
2022-08-11T22:43:15.065Z,3.90
2022-08-11T22:46:00.676Z,5.47
2022-08-11T22:48:48.660Z,3.07
2022-08-11T22:51:36.852Z,4.47
2022-08-11T22:54:23.320Z,3.70
2022-08-11T22:57:10.577Z,5.20
2022-08-11T22:59:57.547Z,5.03
2022-08-11T23:02:46.000Z,3.80
2022-08-11T23:05:32.778Z,2.50
2022-08-11T23:08:19.164Z,8.73
2022-08-11T23:11:05.665Z,4.30
2022-08-11T23:13:52.454Z,4.10
2022-08-11T23:16:39.556Z,7.27
2022-08-11T23:20:00.328Z,4.10
2022-08-11T23:22:43.754Z,5.40
2022-08-11T23:25:35.319Z,6.50
2022-08-11T23:28:22.233Z,5.23
2022-08-11T23:31:11.925Z,6.37
2022-08-11T23:34:00.499Z,4.70
2022-08-11T23:36:47.266Z,5.13
2022-08-11T23:39:33.788Z,17.63
2022-08-11T23:42:19.174Z,3.63
2022-08-11T23:45:05.638Z,3.80
2022-08-11T23:47:57.876Z,3.90
2022-08-11T23:50:44.321Z,7.93
2022-08-11T23:53:31.341Z,5.80
2022-08-11T23:56:17.272Z,4.50
2022-08-11T23:59:08.692Z,7.10
